»·PEaware :: WAT388 KIFP-KSAN

WAT388 :: KIFP-KSAN

FLIGHT INFORMATION

Flight Status: Arrived
Operator:
Walker Air Transport
More flights by this operator :: More flights under this callsign
Pilot: Jacob A. (30091)
Aircraft: MOONEY M-20 201 202 205 220 ATS MSE
(M20P)
More flights by this aircraft type
Origin: KIFP Laughlin/Bullhead Intl
United States
Destination: KSAN San Diego Intl-Lindbergh
United States
More flights between these airports :: More routes between these airports
Route: ZELMA V514 TRM V208 JLI V514 CANNO
File this flight plan on PilotEdge
Remarks:
Altitude:
(Current/Filed)
16,500ft
Speed:
(Current/Filed)
170kts
Departed: 28-Oct-20 09:47 AM
Arrived: 28-Oct-20 11:06 AM
Distance/Time
Traveled:
195nm/1:19
Distance/Time
To Go:
Arrived

Flight Plot

Page will automatically refresh every two minutes.

Flight plan parsing failed; only flown route is shown


Map Options




Map Legend


Flown Route
Filed Route
Departure Airport
Arrival Airport
Navaid (VOR, NDB)
Fix

Horizontal Profiles

Position Reports

Time Latitude Longitude Heading Altitude Ground
Speed
28-Oct-20 09:29 35.157298 -114.556196 262 661ft 0kts
28-Oct-20 09:30 35.157298 -114.556196 262 661ft 0kts
28-Oct-20 09:31 35.157298 -114.556196 262 661ft 0kts
28-Oct-20 09:32 35.157298 -114.556196 262 661ft 0kts
28-Oct-20 09:33 35.157298 -114.556196 262 661ft 0kts
28-Oct-20 09:34 35.157298 -114.556196 262 661ft 0kts
28-Oct-20 09:35 35.157298 -114.556196 262 661ft 0kts
28-Oct-20 09:36 35.157298 -114.556196 262 661ft 0kts
28-Oct-20 09:37 35.157298 -114.556196 262 661ft 0kts
28-Oct-20 09:38 35.157298 -114.556196 262 661ft 0kts
28-Oct-20 09:39 35.157298 -114.556196 262 661ft 0kts
28-Oct-20 09:40 35.159162 -114.556654 355 654ft 23kts
28-Oct-20 09:41 35.161784 -114.558491 356 644ft 16kts
28-Oct-20 09:42 35.166232 -114.559200 267 630ft 0kts
28-Oct-20 09:43 35.166232 -114.559200 267 630ft 0kts
28-Oct-20 09:44 35.166232 -114.559200 267 630ft 0kts
28-Oct-20 09:45 35.166225 -114.559634 268 630ft 12kts
28-Oct-20 09:46 35.151501 -114.559526 179 1179ft 95kts
28-Oct-20 09:47 35.119086 -114.559813 175 2573ft 129kts
28-Oct-20 09:48 35.078387 -114.556521 176 3479ft 145kts
28-Oct-20 09:49 35.058242 -114.585558 257 4494ft 129kts
28-Oct-20 09:50 35.050928 -114.628910 258 5497ft 130kts
28-Oct-20 09:51 35.043672 -114.671948 258 6498ft 127kts
28-Oct-20 09:52 35.036362 -114.714877 258 7502ft 130kts
28-Oct-20 09:53 35.029079 -114.757864 258 8501ft 128kts
28-Oct-20 09:54 35.025419 -114.800048 284 9508ft 125kts
28-Oct-20 09:55 35.020350 -114.839756 242 10513ft 121kts
28-Oct-20 09:56 35.003431 -114.875388 239 11515ft 126kts
28-Oct-20 09:57 34.985932 -114.911532 239 12510ft 119kts
28-Oct-20 09:58 34.968348 -114.948033 239 13253ft 132kts
28-Oct-20 09:59 34.949155 -114.987851 239 13949ft 139kts
28-Oct-20 10:00 34.929478 -115.028608 239 14646ft 140kts
28-Oct-20 10:01 34.909759 -115.069411 239 15346ft 138kts
28-Oct-20 10:02 34.890586 -115.109043 239 16046ft 134kts
28-Oct-20 10:03 34.871176 -115.149078 239 16489ft 148kts
28-Oct-20 10:04 34.848544 -115.195771 239 16500ft 168kts
28-Oct-20 10:05 34.824105 -115.246076 239 16500ft 175kts
28-Oct-20 10:06 34.799005 -115.297681 239 16501ft 177kts
28-Oct-20 10:07 34.764346 -115.337856 204 16501ft 178kts
28-Oct-20 10:08 34.717738 -115.358659 199 16501ft 178kts
28-Oct-20 10:09 34.671076 -115.379075 199 16501ft 178kts
28-Oct-20 10:10 34.624411 -115.399488 199 16501ft 178kts
28-Oct-20 10:11 34.577719 -115.419893 199 16501ft 178kts
28-Oct-20 10:12 34.531133 -115.440223 199 16501ft 178kts
28-Oct-20 10:13 34.484461 -115.460571 199 16501ft 178kts
28-Oct-20 10:14 34.437807 -115.480886 199 16501ft 178kts
28-Oct-20 10:15 34.391096 -115.501197 199 16501ft 178kts
28-Oct-20 10:16 34.344487 -115.521437 199 16501ft 178kts
28-Oct-20 10:17 34.303464 -115.554509 223 16501ft 178kts
28-Oct-20 10:18 34.267388 -115.595479 223 16501ft 178kts
28-Oct-20 10:19 34.231097 -115.636366 223 16501ft 178kts
28-Oct-20 10:20 34.194796 -115.677209 223 16501ft 178kts
28-Oct-20 10:21 34.158424 -115.718068 223 16501ft 178kts
28-Oct-20 10:22 34.122186 -115.758751 223 16501ft 178kts
28-Oct-20 10:23 34.082397 -115.794195 213 16501ft 178kts
28-Oct-20 10:24 34.041127 -115.827566 214 16501ft 178kts
28-Oct-20 10:25 33.999973 -115.860895 213 16501ft 178kts
28-Oct-20 10:27 33.958743 -115.894228 213 16501ft 178kts
28-Oct-20 10:28 33.917636 -115.927443 213 16501ft 178kts
28-Oct-20 10:29 33.876337 -115.960754 213 16501ft 178kts
28-Oct-20 10:30 33.835119 -115.993986 213 16501ft 178kts
28-Oct-20 10:31 33.793956 -116.027126 213 16501ft 178kts
28-Oct-20 10:32 33.752671 -116.060302 213 16501ft 178kts
28-Oct-20 10:33 33.711483 -116.093373 213 16501ft 178kts
28-Oct-20 10:34 33.670189 -116.126485 213 16501ft 178kts
28-Oct-20 10:35 33.628895 -116.159439 214 16501ft 178kts
28-Oct-20 10:36 33.588877 -116.194637 216 16501ft 178kts
28-Oct-20 10:37 33.548812 -116.229830 216 16501ft 178kts
28-Oct-20 10:38 33.508741 -116.264971 216 16501ft 178kts
28-Oct-20 10:39 33.468802 -116.299947 216 16501ft 178kts
28-Oct-20 10:40 33.428302 -116.335374 216 16318ft 186kts
28-Oct-20 10:41 33.385367 -116.372884 216 15816ft 193kts
28-Oct-20 10:42 33.341866 -116.410851 216 15314ft 193kts
28-Oct-20 10:43 33.298312 -116.448795 216 14813ft 193kts
28-Oct-20 10:44 33.253951 -116.487397 216 13829ft 199kts
28-Oct-20 10:44 33.216421 -116.520021 215 12996ft 201kts
28-Oct-20 10:46 33.163610 -116.565862 216 11828ft 201kts
28-Oct-20 10:46 33.122284 -116.586366 194 10991ft 188kts
28-Oct-20 10:48 33.062635 -116.594034 184 9826ft 184kts
28-Oct-20 10:48 33.020012 -116.598447 185 8990ft 184kts
28-Oct-20 10:49 32.970037 -116.603625 184 8511ft 172kts
28-Oct-20 10:50 32.923752 -116.608421 185 8502ft 164kts
28-Oct-20 10:51 32.876835 -116.613269 184 8150ft 175kts
28-Oct-20 10:52 32.829297 -116.628667 197 7647ft 178kts
28-Oct-20 10:53 32.787896 -116.656171 222 7503ft 167kts
28-Oct-20 10:54 32.757866 -116.698617 234 7253ft 174kts
28-Oct-20 10:55 32.731037 -116.746958 251 6752ft 177kts
28-Oct-20 10:56 32.717342 -116.803470 254 6249ft 178kts
28-Oct-20 10:57 32.703699 -116.859889 253 5749ft 178kts
28-Oct-20 10:58 32.692123 -116.916568 261 4969ft 174kts
28-Oct-20 10:59 32.689389 -116.971316 268 4286ft 161kts
28-Oct-20 11:00 32.693258 -117.019489 286 3481ft 133kts
28-Oct-20 11:01 32.702507 -117.060960 283 2980ft 130kts
28-Oct-20 11:02 32.712399 -117.102205 294 2525ft 128kts
28-Oct-20 11:03 32.720369 -117.137399 286 1557ft 93kts
28-Oct-20 11:04 32.728302 -117.167975 286 513ft 102kts
28-Oct-20 11:05 32.733774 -117.190405 287 15ft 25kts
28-Oct-20 11:06 32.734793 -117.190596 59 13ft 9kts
28-Oct-20 11:07 32.733224 -117.183522 105 15ft 23kts
28-Oct-20 11:08 32.734080 -117.178884 55 14ft 0kts

Navigation Log

Ident Type
Flight plan parsing failed, navigation log unavailable